createdAt,value
2018-09-18T00:01:09.249Z,25.82
2018-09-18T00:06:14.907Z,25.80
2018-09-18T00:08:44.896Z,25.80
2018-09-18T00:11:15.063Z,25.80
2018-09-18T00:13:45.058Z,25.79
2018-09-18T00:16:15.021Z,25.78
2018-09-18T00:18:45.465Z,25.78
2018-09-18T00:21:15.518Z,25.77
2018-09-18T00:23:45.729Z,25.77
2018-09-18T00:26:15.762Z,25.76
2018-09-18T00:28:46.163Z,25.76
2018-09-18T00:31:16.183Z,25.75
2018-09-18T00:33:46.283Z,25.75
2018-09-18T00:36:16.424Z,25.75
2018-09-18T00:38:46.637Z,25.74
2018-09-18T00:41:16.708Z,25.73
2018-09-18T00:43:46.984Z,25.72
2018-09-18T00:46:17.001Z,25.72
2018-09-18T00:48:47.038Z,25.72
2018-09-18T00:51:17.121Z,25.71
2018-09-18T00:53:47.221Z,25.71
2018-09-18T00:56:17.364Z,25.70
2018-09-18T00:58:47.524Z,25.69
2018-09-18T01:01:17.731Z,25.69
2018-09-18T01:03:47.720Z,25.69
2018-09-18T01:06:17.800Z,25.68
2018-09-18T01:08:47.790Z,25.67
2018-09-18T01:11:17.894Z,25.67
2018-09-18T01:13:47.979Z,25.66
2018-09-18T01:16:18.132Z,25.66
2018-09-18T01:18:48.208Z,25.65
2018-09-18T01:21:18.163Z,25.64
2018-09-18T01:23:48.204Z,25.65
2018-09-18T01:26:18.277Z,25.64
2018-09-18T01:28:48.460Z,25.63
2018-09-18T01:31:18.466Z,25.63
2018-09-18T01:33:48.714Z,25.63
2018-09-18T01:36:18.710Z,25.61
2018-09-18T01:38:48.831Z,25.61
2018-09-18T01:41:18.825Z,25.60
2018-09-18T01:43:49.066Z,25.60
2018-09-18T01:46:19.049Z,25.60
2018-09-18T01:48:49.237Z,25.59
2018-09-18T01:51:19.163Z,25.59
2018-09-18T01:53:49.311Z,25.59
2018-09-18T01:56:19.330Z,25.58
2018-09-18T01:58:49.448Z,25.58
2018-09-18T02:01:19.485Z,25.57
2018-09-18T02:03:49.478Z,25.56
2018-09-18T02:06:19.589Z,25.57
2018-09-18T02:08:49.841Z,25.56
2018-09-18T02:11:19.890Z,25.55
2018-09-18T02:13:49.834Z,25.55
2018-09-18T02:16:19.808Z,25.55
2018-09-18T02:18:49.826Z,25.54
2018-09-18T02:21:19.828Z,25.54
2018-09-18T02:23:49.866Z,25.53
2018-09-18T02:26:19.785Z,25.54
2018-09-18T02:28:49.854Z,25.53
2018-09-18T02:31:20.012Z,25.53
2018-09-18T02:33:50.182Z,25.52
2018-09-18T02:36:20.310Z,25.51
2018-09-18T02:38:50.973Z,25.52
2018-09-18T02:41:20.884Z,25.50
2018-09-18T02:43:50.891Z,25.51
2018-09-18T02:46:20.974Z,25.51
2018-09-18T02:48:50.964Z,25.50
2018-09-18T02:51:21.023Z,25.49
2018-09-18T02:53:51.186Z,25.49
2018-09-18T02:56:21.303Z,25.48
2018-09-18T02:58:51.333Z,25.47
2018-09-18T03:01:21.337Z,25.47
2018-09-18T03:03:51.453Z,25.46
2018-09-18T03:08:43.065Z,25.45
2018-09-18T03:11:13.039Z,25.46
2018-09-18T03:13:43.025Z,25.45
2018-09-18T03:16:13.536Z,25.44
2018-09-18T03:18:43.633Z,25.44
2018-09-18T03:21:13.632Z,25.43
2018-09-18T03:23:43.726Z,25.44
2018-09-18T03:26:13.756Z,25.43
2018-09-18T03:28:43.986Z,25.42
2018-09-18T03:31:14.197Z,25.43
2018-09-18T03:33:44.254Z,25.42
2018-09-18T03:36:14.305Z,25.42
2018-09-18T03:38:44.438Z,25.42
2018-09-18T03:41:14.693Z,25.41
2018-09-18T03:43:44.721Z,25.40
2018-09-18T03:46:14.976Z,25.41
2018-09-18T03:48:44.987Z,25.40
2018-09-18T03:51:15.059Z,25.40
2018-09-18T03:53:45.179Z,25.40
2018-09-18T03:56:15.481Z,25.40
2018-09-18T03:58:45.567Z,25.40
2018-09-18T04:01:22.072Z,25.38
2018-09-18T04:03:52.287Z,25.41
2018-09-18T04:06:22.474Z,25.40
2018-09-18T04:08:52.397Z,25.39
2018-09-18T04:11:22.570Z,25.38
2018-09-18T04:13:52.625Z,25.38
2018-09-18T04:16:24.411Z,25.38
2018-09-18T04:18:55.001Z,25.38
2018-09-18T04:21:30.283Z,25.37
2018-09-18T04:24:00.313Z,25.37
2018-09-18T04:26:30.323Z,25.35
2018-09-18T04:29:00.355Z,25.36
2018-09-18T04:31:30.443Z,25.37
2018-09-18T04:34:00.477Z,25.36
2018-09-18T04:36:31.204Z,25.36
2018-09-18T04:39:01.239Z,25.36
2018-09-18T04:41:31.293Z,25.35
2018-09-18T04:44:01.324Z,25.35
2018-09-18T04:46:31.341Z,25.35
2018-09-18T04:49:01.736Z,25.36
2018-09-18T04:51:31.723Z,25.35
2018-09-18T04:54:01.753Z,25.38
2018-09-18T04:56:32.139Z,25.37
2018-09-18T04:59:02.249Z,25.37
2018-09-18T05:01:32.377Z,25.41
2018-09-18T05:04:02.444Z,25.41
2018-09-18T05:06:32.733Z,25.43
2018-09-18T05:09:02.845Z,25.45
2018-09-18T05:11:32.835Z,25.45
2018-09-18T05:14:03.010Z,25.46
2018-09-18T05:16:33.643Z,25.46
2018-09-18T05:19:03.621Z,25.49
2018-09-18T05:21:33.875Z,25.50
2018-09-18T05:24:04.141Z,25.52
2018-09-18T05:26:34.130Z,25.50
2018-09-18T05:29:04.523Z,25.51
2018-09-18T05:31:34.644Z,25.53
2018-09-18T05:34:04.710Z,25.52
2018-09-18T05:36:35.129Z,25.53
2018-09-18T05:39:07.367Z,25.54
2018-09-18T05:41:37.481Z,25.56
2018-09-18T05:44:39.852Z,25.56
2018-09-18T05:47:10.952Z,25.56
2018-09-18T05:49:42.262Z,25.57
2018-09-18T05:52:12.406Z,25.58
2018-09-18T05:54:42.374Z,25.57
2018-09-18T05:57:12.540Z,25.57
2018-09-18T05:59:42.542Z,25.57
2018-09-18T06:02:12.811Z,25.57
2018-09-18T06:04:42.845Z,25.57
2018-09-18T06:07:12.985Z,25.57
2018-09-18T06:09:43.087Z,25.59
2018-09-18T06:12:13.254Z,25.59
2018-09-18T06:14:43.292Z,25.57
2018-09-18T06:17:13.597Z,25.56
2018-09-18T06:19:44.114Z,25.57
2018-09-18T06:22:14.312Z,25.56
2018-09-18T06:24:44.377Z,25.56
2018-09-18T06:27:14.430Z,25.56
2018-09-18T06:29:44.426Z,25.57
2018-09-18T06:32:14.624Z,25.57
2018-09-18T06:34:44.826Z,25.55
2018-09-18T06:37:17.694Z,25.56
2018-09-18T06:39:47.705Z,25.57
2018-09-18T06:42:17.847Z,25.56
2018-09-18T06:44:48.332Z,25.56
2018-09-18T06:47:18.549Z,25.57
2018-09-18T06:49:48.613Z,25.56
2018-09-18T06:52:19.112Z,25.56
2018-09-18T06:54:49.343Z,25.58
2018-09-18T06:57:19.373Z,25.58
2018-09-18T06:59:49.471Z,25.59
2018-09-18T07:02:19.613Z,25.61
2018-09-18T07:04:49.829Z,25.60
2018-09-18T07:07:19.883Z,25.60
2018-09-18T07:09:49.893Z,25.59
2018-09-18T07:12:20.108Z,25.59
2018-09-18T07:14:50.201Z,25.62
2018-09-18T07:17:20.213Z,25.60
2018-09-18T07:19:50.374Z,25.60
2018-09-18T07:22:20.447Z,25.61
2018-09-18T07:24:50.554Z,25.63
2018-09-18T07:27:20.777Z,25.64
2018-09-18T07:29:50.795Z,25.64
2018-09-18T07:32:20.940Z,25.64
2018-09-18T07:34:51.157Z,25.66
2018-09-18T07:37:21.637Z,25.65
2018-09-18T07:39:51.600Z,25.65
2018-09-18T07:42:21.565Z,25.63
2018-09-18T07:44:51.635Z,25.62
2018-09-18T07:47:21.653Z,25.62
2018-09-18T07:49:51.825Z,25.61
2018-09-18T07:52:22.043Z,25.61
2018-09-18T07:54:52.136Z,25.61
2018-09-18T07:57:22.368Z,25.60
2018-09-18T07:59:52.398Z,25.60
2018-09-18T08:02:22.582Z,25.59
2018-09-18T08:04:52.710Z,25.58
2018-09-18T08:07:22.904Z,25.57
2018-09-18T08:09:52.914Z,25.56
2018-09-18T08:12:23.091Z,25.56
2018-09-18T08:14:53.046Z,25.53
2018-09-18T08:17:24.467Z,25.53
2018-09-18T08:19:54.934Z,25.53
2018-09-18T08:22:24.950Z,25.52
2018-09-18T08:24:55.017Z,25.52
2018-09-18T08:27:25.054Z,25.52
2018-09-18T08:29:54.994Z,25.52
2018-09-18T08:32:25.118Z,25.52
2018-09-18T08:34:55.410Z,25.52
2018-09-18T08:37:25.485Z,25.52
2018-09-18T08:39:55.599Z,25.51
2018-09-18T08:42:25.520Z,25.52
2018-09-18T08:44:55.546Z,25.52
2018-09-18T08:47:25.489Z,25.52
2018-09-18T08:49:55.600Z,25.51
2018-09-18T08:52:25.646Z,25.52
2018-09-18T08:54:55.726Z,25.53
2018-09-18T08:57:25.825Z,25.51
2018-09-18T08:59:55.845Z,25.52
2018-09-18T09:02:26.163Z,25.51
2018-09-18T09:04:56.209Z,25.51
2018-09-18T09:07:26.044Z,25.51
2018-09-18T09:09:56.157Z,25.51
2018-09-18T09:12:26.278Z,25.51
2018-09-18T09:14:56.412Z,25.52
2018-09-18T09:17:26.300Z,25.50
2018-09-18T09:19:56.395Z,25.50
2018-09-18T09:22:26.514Z,25.51
2018-09-18T09:24:56.688Z,25.51
2018-09-18T09:27:26.757Z,25.52
2018-09-18T09:29:56.946Z,25.52
2018-09-18T09:32:27.100Z,25.51
2018-09-18T09:34:57.058Z,25.52
2018-09-18T09:37:27.139Z,25.52
2018-09-18T09:39:57.083Z,25.52
2018-09-18T09:42:27.056Z,25.53
2018-09-18T09:44:57.504Z,25.52
2018-09-18T09:47:27.420Z,25.53
2018-09-18T09:49:57.430Z,25.51
2018-09-18T09:52:27.366Z,25.51
2018-09-18T09:54:57.383Z,25.50
2018-09-18T09:57:27.382Z,25.52
2018-09-18T09:59:57.523Z,25.53
2018-09-18T10:02:28.363Z,25.54
2018-09-18T10:04:59.141Z,25.52
2018-09-18T10:07:29.104Z,25.52
2018-09-18T10:09:59.128Z,25.53
2018-09-18T10:12:29.149Z,25.54
2018-09-18T10:14:59.236Z,25.55
2018-09-18T10:17:29.239Z,25.54
2018-09-18T10:19:59.170Z,25.54
2018-09-18T10:22:29.301Z,25.53
2018-09-18T10:24:59.386Z,25.54
2018-09-18T10:27:29.402Z,25.55
2018-09-18T10:29:59.491Z,25.55
2018-09-18T10:32:29.641Z,25.55
2018-09-18T10:34:59.658Z,25.55
2018-09-18T10:37:29.713Z,25.56
2018-09-18T10:39:59.722Z,25.57
2018-09-18T10:42:29.864Z,25.58
2018-09-18T10:45:00.083Z,25.57
2018-09-18T10:47:29.999Z,25.58
2018-09-18T10:50:00.013Z,25.60
2018-09-18T10:52:30.044Z,25.60
2018-09-18T10:55:00.179Z,25.62
2018-09-18T10:57:30.282Z,25.62
2018-09-18T11:00:00.360Z,25.63
2018-09-18T11:02:30.298Z,25.64
2018-09-18T11:05:00.321Z,25.66
2018-09-18T11:07:30.320Z,25.66
2018-09-18T11:10:00.542Z,25.65
2018-09-18T11:12:30.543Z,25.65
2018-09-18T11:15:00.516Z,25.67
2018-09-18T11:17:30.566Z,25.68
2018-09-18T11:20:00.779Z,25.69
2018-09-18T11:22:30.910Z,25.71
2018-09-18T11:25:00.884Z,25.71
2018-09-18T11:27:30.877Z,25.71
2018-09-18T11:30:01.028Z,25.73
2018-09-18T11:32:31.072Z,25.72
2018-09-18T11:35:01.231Z,25.72
2018-09-18T11:37:31.197Z,25.76
2018-09-18T11:40:01.196Z,25.76
2018-09-18T11:42:31.458Z,25.77
2018-09-18T11:45:01.689Z,25.77
2018-09-18T11:47:31.764Z,25.78
2018-09-18T11:50:02.036Z,25.78
2018-09-18T11:52:32.186Z,25.81
2018-09-18T11:55:02.682Z,25.82
2018-09-18T11:57:32.786Z,25.83
2018-09-18T12:00:02.935Z,25.84
2018-09-18T12:02:33.195Z,25.84
2018-09-18T12:05:03.278Z,25.87
2018-09-18T12:07:33.202Z,25.90
2018-09-18T12:10:03.698Z,25.89
2018-09-18T12:12:34.044Z,25.91
2018-09-18T12:15:04.420Z,25.91
2018-09-18T12:17:34.576Z,25.93
2018-09-18T12:20:04.781Z,25.93
2018-09-18T12:22:34.850Z,25.93
2018-09-18T12:25:05.092Z,25.94
2018-09-18T12:27:35.347Z,25.94
2018-09-18T12:30:05.970Z,26.01
2018-09-18T12:32:36.193Z,26.03
2018-09-18T12:35:06.739Z,26.01
2018-09-18T12:37:38.584Z,26.02
2018-09-18T12:40:09.131Z,26.05
2018-09-18T12:42:40.040Z,26.05
2018-09-18T12:45:10.174Z,26.08
2018-09-18T12:47:40.163Z,26.08
2018-09-18T12:50:10.412Z,26.16
2018-09-18T12:52:40.377Z,26.20
2018-09-18T12:55:10.559Z,26.20
2018-09-18T12:57:43.001Z,26.18
2018-09-18T13:00:13.230Z,26.23
2018-09-18T13:02:43.487Z,26.25
2018-09-18T13:05:13.585Z,26.29
2018-09-18T13:07:43.673Z,26.28
2018-09-18T13:10:13.814Z,26.32
2018-09-18T13:12:43.902Z,26.32
2018-09-18T13:15:14.040Z,26.32
2018-09-18T13:17:44.138Z,26.34
2018-09-18T13:20:14.467Z,26.34
2018-09-18T13:22:44.641Z,26.38
2018-09-18T13:25:14.895Z,26.36
2018-09-18T13:27:45.010Z,26.35
2018-09-18T13:30:15.278Z,26.36
2018-09-18T13:32:45.519Z,26.36
2018-09-18T13:35:15.528Z,26.37
2018-09-18T13:37:45.503Z,26.40
2018-09-18T13:40:15.702Z,26.42
2018-09-18T13:42:46.272Z,26.42
2018-09-18T13:45:16.768Z,26.39
2018-09-18T13:47:46.897Z,26.35
2018-09-18T13:50:17.271Z,26.38
2018-09-18T13:52:47.298Z,26.39
2018-09-18T13:55:17.526Z,26.38
2018-09-18T13:57:47.519Z,26.38
2018-09-18T14:00:17.487Z,26.38
2018-09-18T14:02:47.527Z,26.40
2018-09-18T14:05:17.635Z,26.41
2018-09-18T14:07:47.563Z,26.43
2018-09-18T14:10:17.637Z,26.43
2018-09-18T14:12:47.905Z,26.44
2018-09-18T14:15:18.009Z,26.45
2018-09-18T14:17:48.019Z,26.49
2018-09-18T14:20:17.990Z,26.50
2018-09-18T14:22:48.063Z,26.55
2018-09-18T14:25:18.097Z,26.55
2018-09-18T14:27:48.031Z,26.55
2018-09-18T14:30:18.090Z,26.56
2018-09-18T14:32:48.019Z,26.53
2018-09-18T14:35:18.146Z,26.48
2018-09-18T14:37:48.219Z,26.49
2018-09-18T14:40:18.331Z,26.52
2018-09-18T14:42:48.190Z,26.50
2018-09-18T14:45:18.275Z,26.51
2018-09-18T14:47:49.327Z,26.48
2018-09-18T14:50:19.312Z,26.47
2018-09-18T14:52:49.289Z,26.46
2018-09-18T14:55:19.530Z,26.47
2018-09-18T14:57:49.546Z,26.46
2018-09-18T15:00:19.570Z,26.52
2018-09-18T15:02:49.578Z,26.51
2018-09-18T15:05:19.684Z,26.50
2018-09-18T15:07:49.612Z,26.51
2018-09-18T15:10:19.851Z,26.54
2018-09-18T15:12:49.876Z,26.56
2018-09-18T15:15:19.901Z,26.53
2018-09-18T15:23:41.084Z,26.49
2018-09-18T15:32:18.621Z,26.50
2018-09-18T15:34:49.042Z,26.51
2018-09-18T15:37:19.066Z,26.50
2018-09-18T15:39:49.128Z,26.51
2018-09-18T15:42:19.109Z,26.54
2018-09-18T15:44:49.272Z,26.56
2018-09-18T15:47:19.363Z,26.54
2018-09-18T15:49:49.494Z,26.54
2018-09-18T15:52:19.642Z,26.54
2018-09-18T15:54:49.736Z,26.55
2018-09-18T15:57:19.810Z,26.55
2018-09-18T15:59:49.810Z,26.57
2018-09-18T16:02:19.902Z,26.60
2018-09-18T16:04:50.109Z,26.60
2018-09-18T16:07:20.160Z,26.59
2018-09-18T16:09:50.144Z,26.66
2018-09-18T16:12:20.467Z,26.74
2018-09-18T16:14:50.694Z,26.78
2018-09-18T16:17:20.714Z,26.76
2018-09-18T16:19:51.067Z,26.74
2018-09-18T16:22:21.218Z,26.74
2018-09-18T16:24:51.410Z,26.80
2018-09-18T16:27:21.545Z,27.05
2018-09-18T16:29:51.613Z,27.10
2018-09-18T16:32:21.766Z,27.10
2018-09-18T16:34:52.081Z,26.99
2018-09-18T16:37:22.236Z,26.86
2018-09-18T16:39:52.370Z,26.81
2018-09-18T16:42:22.568Z,26.80
2018-09-18T16:44:52.698Z,26.77
2018-09-18T16:47:23.544Z,26.83
2018-09-18T16:49:54.113Z,27.12
2018-09-18T16:52:25.604Z,27.13
2018-09-18T16:54:56.367Z,27.11
2018-09-18T16:57:26.966Z,27.04
2018-09-18T16:59:57.136Z,26.95
2018-09-18T17:02:29.596Z,26.88
2018-09-18T17:05:02.324Z,26.84
2018-09-18T17:07:32.485Z,26.80
2018-09-18T17:10:03.329Z,26.77
2018-09-18T17:12:33.611Z,26.73
2018-09-18T17:15:03.969Z,26.71
2018-09-18T17:17:35.071Z,26.70
2018-09-18T17:20:05.543Z,26.70
2018-09-18T17:22:35.941Z,26.67
2018-09-18T17:25:06.013Z,26.66
2018-09-18T17:27:36.399Z,26.65
2018-09-18T17:30:06.926Z,26.63
2018-09-18T17:32:36.899Z,26.62
2018-09-18T17:35:07.677Z,26.60
2018-09-18T17:37:37.861Z,26.58
2018-09-18T17:40:07.955Z,26.58
2018-09-18T17:42:37.933Z,26.57
2018-09-18T17:45:08.507Z,26.57
2018-09-18T17:47:38.636Z,26.56
2018-09-18T17:50:08.793Z,26.54
2018-09-18T17:52:38.808Z,26.53
2018-09-18T17:55:08.939Z,26.51
2018-09-18T17:57:39.041Z,26.48
2018-09-18T18:00:09.675Z,26.49
2018-09-18T18:02:39.886Z,26.48
2018-09-18T18:05:10.374Z,26.47
2018-09-18T18:07:41.011Z,26.49
2018-09-18T18:10:11.904Z,26.48
2018-09-18T18:12:42.307Z,26.48
2018-09-18T18:15:12.828Z,26.48
2018-09-18T18:17:43.192Z,26.47
2018-09-18T18:20:13.371Z,26.47
2018-09-18T18:22:45.104Z,26.45
2018-09-18T18:25:15.468Z,26.44
2018-09-18T18:27:45.588Z,26.41
2018-09-18T18:30:15.732Z,26.41
2018-09-18T18:32:46.211Z,26.42
2018-09-18T18:35:18.183Z,26.43
2018-09-18T18:37:48.490Z,26.42
2018-09-18T18:40:18.961Z,26.41
2018-09-18T18:42:49.159Z,26.41
2018-09-18T18:45:19.610Z,26.42
2018-09-18T18:47:50.826Z,26.42
2018-09-18T18:50:20.990Z,26.42
2018-09-18T18:52:51.090Z,26.42
2018-09-18T18:55:21.487Z,26.42
2018-09-18T18:57:51.540Z,26.42
2018-09-18T19:00:21.609Z,26.42
2018-09-18T19:02:51.787Z,26.42
2018-09-18T19:05:22.330Z,26.42
2018-09-18T19:07:52.315Z,26.43
2018-09-18T19:10:25.242Z,26.45
2018-09-18T19:12:55.307Z,26.46
2018-09-18T19:15:25.434Z,26.46
2018-09-18T19:17:55.511Z,26.47
2018-09-18T19:20:27.633Z,26.46
2018-09-18T19:22:57.883Z,26.46
2018-09-18T19:25:28.143Z,26.46
2018-09-18T19:27:58.187Z,26.46
2018-09-18T19:30:28.288Z,26.45
2018-09-18T19:32:58.520Z,26.46
2018-09-18T19:35:29.287Z,26.45
2018-09-18T19:37:59.407Z,26.45
2018-09-18T19:40:32.021Z,26.44
2018-09-18T19:43:02.116Z,26.43
2018-09-18T19:45:32.247Z,26.44
2018-09-18T19:48:02.607Z,26.42
2018-09-18T19:50:36.703Z,26.44
2018-09-18T19:53:07.286Z,26.44
2018-09-18T19:55:37.421Z,26.44
2018-09-18T19:58:07.835Z,26.43
2018-09-18T20:00:38.016Z,26.42
2018-09-18T20:03:08.353Z,26.42
2018-09-18T20:05:38.506Z,26.42
2018-09-18T20:08:09.106Z,26.43
2018-09-18T20:10:39.243Z,26.42
2018-09-18T20:13:09.473Z,26.42
2018-09-18T20:15:39.656Z,26.41
2018-09-18T20:18:09.638Z,26.41
2018-09-18T20:20:40.490Z,26.41
2018-09-18T20:23:10.963Z,26.41
2018-09-18T20:25:41.148Z,26.41
2018-09-18T20:28:11.151Z,26.40
2018-09-18T20:30:41.203Z,26.40
2018-09-18T20:33:11.230Z,26.40
2018-09-18T20:35:41.350Z,26.40
2018-09-18T20:38:12.547Z,26.40
2018-09-18T20:40:42.729Z,26.40
2018-09-18T20:43:12.823Z,26.40
2018-09-18T20:45:43.574Z,26.39
2018-09-18T20:48:13.781Z,26.38
2018-09-18T20:50:43.828Z,26.40
2018-09-18T20:53:13.819Z,26.39
2018-09-18T20:55:43.751Z,26.38
2018-09-18T20:58:13.781Z,26.38
2018-09-18T21:00:43.766Z,26.38
2018-09-18T21:03:13.869Z,26.38
2018-09-18T21:05:43.987Z,26.37
2018-09-18T21:08:14.101Z,26.38
2018-09-18T21:10:44.570Z,26.37
2018-09-18T21:13:14.599Z,26.37
2018-09-18T21:15:44.640Z,26.36
2018-09-18T21:18:14.634Z,26.36
2018-09-18T21:20:44.815Z,26.37
2018-09-18T21:23:14.956Z,26.36
2018-09-18T21:26:18.569Z,26.36
2018-09-18T21:31:30.784Z,26.35
2018-09-18T21:34:00.866Z,26.35
2018-09-18T21:36:30.962Z,26.35
2018-09-18T21:39:01.579Z,26.35
2018-09-18T21:41:32.181Z,26.34
2018-09-18T21:44:02.842Z,26.34
2018-09-18T21:46:33.857Z,26.34
2018-09-18T21:49:03.864Z,26.32
2018-09-18T21:51:33.910Z,26.33
2018-09-18T21:54:03.981Z,26.33
2018-09-18T21:56:34.054Z,26.32
2018-09-18T21:59:04.244Z,26.33
2018-09-18T22:01:34.506Z,26.33
2018-09-18T22:04:05.085Z,26.32
2018-09-18T22:06:35.518Z,26.32
